Terminal Aerodrome Forecast
Issued by NWS Binghamton, NY

Home | Current Version | Previous Version | Text Only | Print | Product List | Glossary On
Versions: 1 2 3 4 5 6 7 8 9 10 11 12 13 14 15 16 17 18 19 20 21 22 23
000
FTUS41 KBGM 292341
TAFAVP
TAF
KAVP 292341Z 3000/3024 19005KT P6SM SCT200
     FM300800 19005KT P6SM SCT015 BKN090
      TEMPO 3008/3012 4SM BR
     FM301400 22010KT P6SM SCT035 BKN080
     FM301800 21009G16KT 6SM -SHRA BKN080 PROB30 3018/3022 P6SM TS
      BKN050CB=

USA.gov is the U.S. government's official web portal to all federal, state and local government web resources and services.